Time;durP1;ratioP1;P1;durP2;ratioP2;P2;SDS_P1;SDS_P2;PMS_P1;PMS_P2;Temp;Humidity;BMP_temperature;BMP_pressure;BME280_temperature;BME280_humidity;BME280_pressure;Samples;Min_cycle;Max_cycle;Signal;HPM_P1;HPM_P2
2021/03/11 00:00:55;;;;;;;61.25;57.75;;;22.90;99.90;;;;;;5075366;28;20053;-49
2021/03/11 00:03:24;;;;;;;59.83;56.45;;;22.80;99.90;;;;;;5074037;28;20115;-48
2021/03/11 00:05:52;;;;;;;62.13;58.63;;;22.90;99.90;;;;;;5075799;28;20078;-46
2021/03/11 00:08:19;;;;;;;55.67;52.53;;;22.90;99.90;;;;;;5075202;28;20021;-46
2021/03/11 00:10:47;;;;;;;54.15;51.08;;;23.00;99.90;;;;;;5075094;28;20051;-48
2021/03/11 00:13:14;;;;;;;55.83;52.33;;;23.20;99.90;;;;;;5075022;28;20031;-57
2021/03/11 00:15:43;;;;;;;52.88;49.92;;;23.30;99.90;;;;;;5075007;28;20025;-54
2021/03/11 00:18:15;;;;;;;51.97;48.88;;;23.40;99.90;;;;;;5074891;28;20523;-57
2021/03/11 00:20:42;;;;;;;59.45;56.17;;;23.50;99.90;;;;;;5075045;28;20052;-59
2021/03/11 00:23:10;;;;;;;51.28;48.50;;;23.40;99.90;;;;;;5075093;28;20058;-58
2021/03/11 00:25:37;;;;;;;49.03;46.28;;;23.60;99.90;;;;;;5074900;28;20039;-53
2021/03/11 00:28:06;;;;;;;49.75;47.22;;;23.80;99.90;;;;;;5074768;28;20065;-50
2021/03/11 00:30:33;;;;;;;48.40;45.72;;;23.90;99.90;;;;;;5074794;28;20477;-49
2021/03/11 00:33:01;;;;;;;48.65;45.90;;;24.20;99.90;;;;;;5074670;28;20513;-52
2021/03/11 00:35:28;;;;;;;47.47;44.95;;;24.20;99.90;;;;;;5074563;28;20415;-52
2021/03/11 00:37:56;;;;;;;44.40;42.10;;;24.30;99.90;;;;;;5074554;28;20028;-53
2021/03/11 00:40:24;;;;;;;44.53;42.08;;;24.80;99.90;;;;;;5074437;28;20028;-50
2021/03/11 00:42:52;;;;;;;42.80;40.40;;;25.00;99.90;;;;;;5074457;28;20032;-53
2021/03/11 00:45:19;;;;;;;36.70;34.80;;;25.40;99.90;;;;;;5074295;28;20517;-50
2021/03/11 00:47:47;;;;;;;35.97;33.92;;;25.80;99.90;;;;;;5074466;28;20165;-49
2021/03/11 00:50:19;;;;;;;32.78;30.98;;;25.90;99.90;;;;;;5074367;28;20150;-53
2021/03/11 00:52:48;;;;;;;30.48;28.80;;;26.20;99.90;;;;;;5074613;28;20024;-51
2021/03/11 00:55:17;;;;;;;31.00;29.50;;;26.60;99.90;;;;;;5074032;28;20031;-50
2021/03/11 00:57:44;;;;;;;27.75;26.25;;;26.80;99.90;;;;;;5074488;28;20016;-51
2021/03/11 01:00:17;;;;;;;30.35;28.38;;;26.80;99.90;;;;;;5074117;28;20437;-51
2021/03/11 01:02:44;;;;;;;25.40;24.08;;;26.60;99.90;;;;;;5074292;28;20029;-51
2021/03/11 01:05:17;;;;;;;23.42;22.00;;;26.70;99.90;;;;;;5074066;28;20028;-48
2021/03/11 01:07:45;;;;;;;23.48;22.20;;;26.70;99.90;;;;;;5074349;28;20025;-51
2021/03/11 01:10:12;;;;;;;20.88;19.88;;;26.70;99.90;;;;;;5073982;28;20023;-54
2021/03/11 01:12:40;;;;;;;19.55;18.17;;;26.70;99.90;;;;;;5073921;28;20138;-54
2021/03/11 01:15:08;;;;;;;17.83;16.60;;;26.70;99.90;;;;;;5074332;28;20028;-54
2021/03/11 01:17:36;;;;;;;17.38;16.17;;;26.70;99.90;;;;;;5074432;28;20024;-47
2021/03/11 01:20:13;;;;;;;15.45;14.35;;;26.60;99.90;;;;;;5073887;28;20024;-48
2021/03/11 01:22:40;;;;;;;16.95;15.90;;;26.50;99.90;;;;;;5073616;28;20020;-52
2021/03/11 01:25:08;;;;;;;15.73;14.63;;;26.80;99.90;;;;;;5073747;28;20081;-51
2021/03/11 01:27:36;;;;;;;13.18;12.20;;;26.80;99.90;;;;;;5073664;28;20029;-54
2021/03/11 01:30:06;;;;;;;15.00;13.95;;;26.40;99.90;;;;;;5073617;28;20013;-50
2021/03/11 01:32:33;;;;;;;16.05;14.82;;;26.30;99.90;;;;;;5073672;28;20028;-50
2021/03/11 01:35:00;;;;;;;15.82;14.57;;;26.00;99.90;;;;;;5073527;28;20125;-52
2021/03/11 01:37:28;;;;;;;14.05;12.98;;;25.90;99.90;;;;;;5073529;28;20492;-55
2021/03/11 01:39:55;;;;;;;14.95;13.75;;;25.90;99.90;;;;;;5072192;28;20020;-48
2021/03/11 01:42:22;;;;;;;14.32;13.27;;;26.00;99.90;;;;;;5073247;28;20412;-48
2021/03/11 01:44:50;;;;;;;12.82;11.73;;;26.00;99.90;;;;;;5073644;28;20417;-51
2021/03/11 01:47:18;;;;;;;13.95;12.85;;;26.00;99.90;;;;;;5073365;28;20024;-51
2021/03/11 01:49:46;;;;;;;13.55;12.40;;;26.10;99.90;;;;;;5073621;28;20149;-52
2021/03/11 01:52:13;;;;;;;13.18;12.18;;;26.10;99.90;;;;;;5073378;28;20026;-50
2021/03/11 01:54:42;;;;;;;13.43;12.35;;;25.80;99.90;;;;;;5073252;28;20027;-49
2021/03/11 01:57:09;;;;;;;14.15;13.20;;;26.10;99.90;;;;;;5073209;28;20017;-52
2021/03/11 01:59:37;;;;;;;12.38;11.55;;;26.00;99.90;;;;;;5073273;28;20021;-49
2021/03/11 02:02:05;;;;;;;11.02;10.18;;;26.40;99.90;;;;;;5073220;28;20017;-47
2021/03/11 02:04:33;;;;;;;14.05;12.15;;;26.70;99.90;;;;;;5073207;28;20023;-55
2021/03/11 02:07:00;;;;;;;10.70;10.00;;;26.90;99.90;;;;;;5073241;28;20451;-55
2021/03/11 02:09:27;;;;;;;11.07;10.18;;;26.90;99.90;;;;;;5071915;28;20032;-53
2021/03/11 02:12:03;;;;;;;12.27;11.27;;;27.00;99.90;;;;;;5073234;28;20021;-55
2021/03/11 02:14:45;;;;;;;11.23;10.40;;;27.10;99.90;;;;;;5072919;28;20469;-53
2021/03/11 02:17:14;;;;;;;11.98;11.05;;;27.30;99.90;;;;;;5073152;28;20028;-57
2021/03/11 02:20:03;;;;;;;11.80;11.10;;;27.70;99.90;;;;;;5073085;28;20017;-52
2021/03/11 02:22:48;;;;;;;10.27;9.57;;;27.80;99.90;;;;;;5073245;28;20020;-58
2021/03/11 02:25:29;;;;;;;10.98;10.27;;;28.10;99.90;;;;;;5073332;28;20044;-59
2021/03/11 02:28:11;;;;;;;10.45;9.55;;;28.40;99.90;;;;;;5076645;28;20397;-59
2021/03/11 02:30:40;;;;;;;9.63;8.77;;;27.90;99.90;;;;;;5077158;28;20024;-58
2021/03/11 02:33:09;;;;;;;10.90;10.10;;;27.50;99.90;;;;;;5077004;28;20047;-56
2021/03/11 02:35:40;;;;;;;10.52;9.82;;;27.10;99.90;;;;;;5075659;28;20036;-57
2021/03/11 02:38:10;;;;;;;12.25;9.43;;;27.10;99.90;;;;;;5076894;28;20031;-54
2021/03/11 02:40:38;;;;;;;9.60;9.00;;;26.90;99.90;;;;;;5059913;28;20052;-55
2021/03/11 02:43:11;;;;;;;11.45;10.65;;;27.20;99.90;;;;;;5076980;28;20032;-56
2021/03/11 02:45:39;;;;;;;10.68;9.88;;;27.40;99.90;;;;;;5075578;28;20024;-54
2021/03/11 02:48:08;;;;;;;9.10;8.40;;;27.60;99.90;;;;;;5076810;28;20031;-54
2021/03/11 02:50:38;;;;;;;10.38;9.48;;;27.80;99.90;;;;;;5076754;28;20028;-57
2021/03/11 02:53:08;;;;;;;10.15;9.30;;;27.90;99.90;;;;;;5076949;28;20024;-53
2021/03/11 02:55:39;;;;;;;10.50;9.52;;;27.80;99.90;;;;;;5076614;28;20082;-56
2021/03/11 02:58:10;;;;;;;9.88;9.00;;;27.40;99.90;;;;;;5076982;28;20036;-56
2021/03/11 03:00:39;;;;;;;11.85;10.85;;;27.20;99.90;;;;;;5076801;28;20549;-57
2021/03/11 03:03:10;;;;;;;11.80;10.60;;;26.90;99.90;;;;;;5076372;28;20082;-59
2021/03/11 03:05:38;;;;;;;10.20;9.35;;;26.80;99.90;;;;;;5076611;28;20082;-54
2021/03/11 03:08:08;;;;;;;10.15;9.20;;;26.60;99.90;;;;;;5076418;28;20112;-59
2021/03/11 03:10:37;;;;;;;11.20;10.13;;;26.50;99.90;;;;;;5076407;28;20027;-60
2021/03/11 03:13:14;;;;;;;11.37;10.43;;;26.40;99.90;;;;;;5076295;28;20028;-60
2021/03/11 03:15:42;;;;;;;12.60;10.48;;;26.30;99.90;;;;;;5076450;28;20059;-61
2021/03/11 03:18:14;;;;;;;13.43;11.50;;;26.20;99.90;;;;;;5076174;28;20016;-59
2021/03/11 03:20:44;;;;;;;10.13;9.10;;;26.10;99.90;;;;;;5076164;28;20020;-56
2021/03/11 03:23:12;;;;;;;13.00;8.45;;;25.90;99.90;;;;;;5076161;28;20021;-58
2021/03/11 03:25:40;;;;;;;11.93;10.75;;;25.80;99.90;;;;;;5075941;28;20033;-58
2021/03/11 03:28:07;;;;;;;13.45;12.20;;;25.70;99.90;;;;;;5076067;28;20020;-57
2021/03/11 03:30:35;;;;;;;12.07;11.18;;;25.60;99.90;;;;;;5076025;28;20070;-55
2021/03/11 03:33:02;;;;;;;11.07;9.90;;;25.50;99.90;;;;;;5075974;28;20020;-58
2021/03/11 03:35:30;;;;;;;10.98;9.88;;;25.50;99.90;;;;;;5075851;28;20033;-58
2021/03/11 03:37:57;;;;;;;11.05;8.90;;;25.30;99.90;;;;;;5075714;28;20024;-55
2021/03/11 03:40:25;;;;;;;11.57;9.85;;;25.20;99.90;;;;;;5075461;28;20016;-59
2021/03/11 03:43:06;;;;;;;15.35;14.18;;;25.20;99.90;;;;;;5075735;28;20031;-59
2021/03/11 03:45:37;;;;;;;14.57;13.57;;;25.20;99.90;;;;;;5076228;28;20021;-58
2021/03/11 03:48:11;;;;;;;14.40;13.40;;;25.20;99.90;;;;;;5075633;28;20102;-60
2021/03/11 03:50:39;;;;;;;13.27;12.18;;;25.10;99.90;;;;;;5075709;28;20047;-58
2021/03/11 03:53:15;;;;;;;13.68;12.57;;;25.20;99.90;;;;;;5075519;28;20033;-59
2021/03/11 03:55:44;;;;;;;13.73;12.50;;;25.20;99.90;;;;;;5076114;28;20016;-60
2021/03/11 03:58:14;;;;;;;14.32;13.13;;;25.20;99.90;;;;;;5075485;28;20016;-58
2021/03/11 04:00:42;;;;;;;14.73;13.57;;;25.10;99.90;;;;;;5075316;28;20025;-58
2021/03/11 04:03:11;;;;;;;14.93;13.60;;;25.10;99.90;;;;;;5075350;28;20149;-57
2021/03/11 04:05:39;;;;;;;14.07;12.90;;;25.20;99.90;;;;;;5075613;28;20021;-57
2021/03/11 04:08:07;;;;;;;14.20;13.10;;;25.20;99.90;;;;;;5075247;28;20115;-59
2021/03/11 04:10:35;;;;;;;11.10;9.98;;;25.20;99.90;;;;;;5075130;28;20027;-57
2021/03/11 04:13:05;;;;;;;13.80;12.60;;;25.20;99.90;;;;;;5075117;28;20028;-57
2021/03/11 04:15:32;;;;;;;14.55;13.43;;;25.30;99.90;;;;;;5075077;28;20394;-59
2021/03/11 04:18:00;;;;;;;15.50;14.20;;;25.40;99.90;;;;;;5075208;28;20024;-59
2021/03/11 04:20:27;;;;;;;14.70;13.70;;;25.30;99.90;;;;;;5075047;28;20020;-56
2021/03/11 04:22:56;;;;;;;13.70;12.48;;;25.30;99.90;;;;;;5075304;28;20017;-59
2021/03/11 04:25:25;;;;;;;16.23;14.82;;;25.40;99.90;;;;;;5074921;28;20469;-61
2021/03/11 04:27:53;;;;;;;16.17;14.90;;;25.40;99.90;;;;;;5074906;28;20024;-59
2021/03/11 04:30:21;;;;;;;14.55;13.27;;;25.40;99.90;;;;;;5074764;28;20393;-58
2021/03/11 04:32:50;;;;;;;13.65;12.65;;;25.50;99.90;;;;;;5074736;28;20048;-59
2021/03/11 04:35:17;;;;;;;13.85;12.73;;;25.70;99.90;;;;;;5073376;28;20111;-59
2021/03/11 04:37:45;;;;;;;14.13;12.70;;;25.60;99.90;;;;;;5074725;28;20020;-59
2021/03/11 04:40:13;;;;;;;13.52;12.38;;;25.70;99.90;;;;;;5074652;28;20460;-59
2021/03/11 04:42:42;;;;;;;12.82;11.70;;;25.80;99.90;;;;;;5074413;28;20485;-59
2021/03/11 04:45:10;;;;;;;12.40;11.20;;;26.00;99.90;;;;;;5074589;28;20037;-58
2021/03/11 04:47:38;;;;;;;10.40;9.50;;;26.10;99.90;;;;;;5073218;28;20499;-58
2021/03/11 04:50:07;;;;;;;9.93;9.10;;;26.10;99.90;;;;;;5073794;28;20020;-58
2021/03/11 04:52:37;;;;;;;10.98;9.98;;;26.20;99.90;;;;;;5074198;28;20081;-58
2021/03/11 04:55:06;;;;;;;10.90;9.95;;;26.30;99.90;;;;;;5074574;28;20438;-55
2021/03/11 04:57:34;;;;;;;10.05;8.98;;;26.30;99.90;;;;;;5074551;28;20020;-59
2021/03/11 05:00:02;;;;;;;10.63;9.70;;;26.40;99.90;;;;;;5074091;28;20020;-56
2021/03/11 05:02:34;;;;;;;11.43;10.52;;;26.70;99.90;;;;;;5073945;28;20103;-56
2021/03/11 05:05:07;;;;;;;11.35;10.20;;;26.70;99.90;;;;;;5073957;28;20025;-55
2021/03/11 05:07:34;;;;;;;12.65;9.10;;;26.70;99.90;;;;;;5074063;28;20504;-60
2021/03/11 05:10:02;;;;;;;11.50;10.50;;;27.00;99.90;;;;;;5073917;28;20024;-59
2021/03/11 05:12:31;;;;;;;12.57;11.52;;;26.90;99.90;;;;;;5073916;28;20031;-60
2021/03/11 05:14:58;;;;;;;12.15;11.23;;;26.90;99.90;;;;;;5073886;28;20481;-60
2021/03/11 05:17:25;;;;;;;9.93;9.07;;;26.70;99.90;;;;;;5073702;28;20020;-59
2021/03/11 05:19:53;;;;;;;10.40;9.40;;;26.70;99.90;;;;;;5074135;28;20031;-59
2021/03/11 05:22:20;;;;;;;12.70;11.70;;;26.60;99.90;;;;;;5072606;28;20028;-61
2021/03/11 05:24:47;;;;;;;12.57;11.38;;;26.40;99.90;;;;;;5073518;28;20030;-59
2021/03/11 05:27:15;;;;;;;11.32;10.30;;;26.10;99.90;;;;;;5073568;28;20040;-58
2021/03/11 05:29:42;;;;;;;13.45;12.20;;;26.00;99.90;;;;;;5073850;28;20024;-60
2021/03/11 05:32:09;;;;;;;15.35;14.07;;;25.90;99.90;;;;;;5073574;28;20025;-58
2021/03/11 05:34:36;;;;;;;14.93;13.77;;;25.90;99.90;;;;;;5073510;28;20039;-59
2021/03/11 05:37:04;;;;;;;14.10;12.90;;;25.80;99.90;;;;;;5072227;28;20429;-59
2021/03/11 05:39:33;;;;;;;15.07;14.00;;;25.80;99.90;;;;;;5073740;28;20021;-59
2021/03/11 05:42:01;;;;;;;15.35;13.90;;;25.90;99.90;;;;;;5073211;28;20050;-60
2021/03/11 05:44:29;;;;;;;13.70;12.57;;;26.00;99.90;;;;;;5072987;28;20055;-59
2021/03/11 05:46:57;;;;;;;13.60;12.25;;;26.00;99.90;;;;;;5073364;28;20028;-58
2021/03/11 05:49:26;;;;;;;14.38;13.00;;;26.20;99.90;;;;;;5073312;28;20469;-58
2021/03/11 05:51:54;;;;;;;14.07;12.88;;;26.50;99.90;;;;;;5073265;28;20170;-58
2021/03/11 05:54:21;;;;;;;14.60;13.30;;;26.10;99.90;;;;;;5073145;28;20385;-58
2021/03/11 05:56:49;;;;;;;15.48;13.93;;;25.90;99.90;;;;;;5073643;28;20095;-58
2021/03/11 05:59:17;;;;;;;14.05;12.55;;;25.90;99.90;;;;;;5073305;28;20025;-58
2021/03/11 06:01:45;;;;;;;14.13;12.82;;;25.90;99.90;;;;;;5072372;28;20022;-57
2021/03/11 06:04:13;;;;;;;14.98;13.52;;;25.90;99.90;;;;;;5073060;28;20083;-55
2021/03/11 06:06:41;;;;;;;16.88;15.27;;;25.70;99.90;;;;;;5073047;28;20078;-54
2021/03/11 06:09:09;;;;;;;17.08;15.38;;;25.50;99.90;;;;;;5073017;28;20035;-53
2021/03/11 06:11:39;;;;;;;16.25;15.10;;;25.30;99.90;;;;;;5073052;28;20025;-54
2021/03/11 06:14:08;;;;;;;19.17;17.63;;;25.20;99.90;;;;;;5072870;28;20142;-55
2021/03/11 06:16:39;;;;;;;19.80;18.13;;;25.10;99.90;;;;;;5072831;28;20024;-55
2021/03/11 06:19:08;;;;;;;18.50;16.95;;;25.10;99.90;;;;;;5072905;28;20393;-52
2021/03/11 06:21:36;;;;;;;22.38;20.67;;;25.00;99.90;;;;;;5072964;28;20021;-53
2021/03/11 06:24:03;;;;;;;25.63;24.02;;;24.70;99.90;;;;;;5073682;28;20483;-52
2021/03/11 06:26:30;;;;;;;28.77;26.67;;;24.50;99.90;;;;;;5072911;28;20020;-54
2021/03/11 06:28:58;;;;;;;32.30;30.23;;;24.40;99.90;;;;;;5072936;28;20449;-52
2021/03/11 06:31:31;;;;;;;36.17;33.85;;;24.40;99.90;;;;;;5072836;28;20028;-53
2021/03/11 06:34:00;;;;;;;41.42;38.75;;;24.30;99.90;;;;;;5072620;28;20024;-56
2021/03/11 06:36:30;;;;;;;43.28;40.67;;;24.30;99.90;;;;;;5073306;28;20025;-55
2021/03/11 06:38:58;;;;;;;46.35;43.60;;;24.30;99.90;;;;;;5072776;28;20024;-53
2021/03/11 06:41:43;;;;;;;47.45;44.42;;;24.20;99.90;;;;;;5072611;28;20132;-54
2021/03/11 06:44:10;;;;;;;52.75;49.25;;;24.30;99.90;;;;;;5072771;28;20035;-52
2021/03/11 06:46:38;;;;;;;53.83;50.22;;;24.20;99.90;;;;;;5072637;28;20453;-54
2021/03/11 06:49:13;;;;;;;55.58;51.90;;;24.20;99.90;;;;;;5072735;28;20021;-54
2021/03/11 06:51:40;;;;;;;52.83;49.17;;;24.20;99.90;;;;;;5073354;28;20028;-53
2021/03/11 06:54:08;;;;;;;53.22;49.42;;;24.10;99.90;;;;;;5072651;28;20024;-56
2021/03/11 06:56:41;;;;;;;52.38;48.85;;;24.10;99.90;;;;;;5072586;28;20410;-53
2021/03/11 06:59:08;;;;;;;53.67;49.88;;;24.20;99.90;;;;;;5072700;28;20020;-51
2021/03/11 07:01:48;;;;;;;52.13;48.58;;;24.10;99.90;;;;;;5072565;28;20077;-51
2021/03/11 07:04:26;;;;;;;51.63;48.00;;;24.00;99.90;;;;;;5073191;28;20025;-53
2021/03/11 07:06:53;;;;;;;51.38;47.78;;;24.00;99.90;;;;;;5072347;28;20040;-54
2021/03/11 07:09:21;;;;;;;51.35;47.72;;;24.00;99.90;;;;;;5072637;28;20116;-54
2021/03/11 07:11:55;;;;;;;52.20;48.90;;;24.00;99.90;;;;;;5072470;28;20385;-55
2021/03/11 07:14:29;;;;;;;54.90;50.97;;;23.90;99.90;;;;;;5076059;28;20077;-55
2021/03/11 07:17:17;;;;;;;54.28;50.45;;;23.90;99.90;;;;;;5076081;28;20028;-53
2021/03/11 07:20:06;;;;;;;55.20;51.60;;;23.70;99.90;;;;;;5076442;28;20492;-55
2021/03/11 07:22:34;;;;;;;55.63;51.58;;;23.70;99.90;;;;;;5076106;28;20017;-54
2021/03/11 07:25:02;;;;;;;52.65;49.30;;;23.80;99.90;;;;;;5076302;28;20048;-50
2021/03/11 07:27:40;;;;;;;48.92;45.63;;;23.80;99.90;;;;;;5075974;28;20029;-51
2021/03/11 07:30:09;;;;;;;49.63;46.20;;;23.70;99.90;;;;;;5075933;28;20029;-56
2021/03/11 07:32:36;;;;;;;51.83;48.33;;;23.80;99.90;;;;;;5075938;28;20033;-57
2021/03/11 07:35:04;;;;;;;52.47;49.30;;;23.70;99.90;;;;;;5075767;28;20028;-55
2021/03/11 07:37:34;;;;;;;52.50;49.00;;;23.70;99.90;;;;;;5075835;28;20048;-50
2021/03/11 07:40:02;;;;;;;52.65;49.33;;;23.60;99.90;;;;;;5075952;28;20037;-51
2021/03/11 07:42:30;;;;;;;51.33;47.90;;;23.60;99.90;;;;;;5075657;28;20056;-54
2021/03/11 07:44:57;;;;;;;50.47;46.92;;;23.60;99.90;;;;;;5075564;28;20022;-54
2021/03/11 07:47:25;;;;;;;49.17;45.60;;;23.60;99.90;;;;;;5075586;28;20017;-49
2021/03/11 07:49:53;;;;;;;49.80;45.75;;;23.60;99.90;;;;;;5075687;28;20027;-53
2021/03/11 07:52:21;;;;;;;52.03;48.30;;;23.60;99.90;;;;;;5075564;28;20021;-55
2021/03/11 07:54:49;;;;;;;50.72;47.25;;;23.60;99.90;;;;;;5075528;28;20030;-50
2021/03/11 07:57:17;;;;;;;47.65;44.13;;;23.60;99.90;;;;;;5075472;28;20477;-51
2021/03/11 07:59:47;;;;;;;48.63;44.90;;;23.50;99.90;;;;;;5075385;28;20017;-54
2021/03/11 08:02:18;;;;;;;45.90;42.53;;;23.50;99.90;;;;;;5075485;28;20032;-53
2021/03/11 08:04:46;;;;;;;48.47;45.10;;;23.50;99.90;;;;;;5075400;28;20029;-50
2021/03/11 08:07:17;;;;;;;47.20;43.50;;;23.40;99.90;;;;;;5075508;28;20111;-55
2021/03/11 08:09:45;;;;;;;44.92;41.47;;;23.40;99.90;;;;;;5075547;28;20025;-56
2021/03/11 08:12:41;;;;;;;46.17;42.58;;;23.40;99.90;;;;;;5075119;28;20036;-56
2021/03/11 08:15:28;;;;;;;43.22;40.17;;;23.40;99.90;;;;;;5073846;28;20115;-54
2021/03/11 08:17:56;;;;;;;45.70;42.67;;;23.40;99.90;;;;;;5075518;28;20027;-52
2021/03/11 08:20:26;;;;;;;44.55;41.30;;;23.40;99.90;;;;;;5074948;28;20473;-53
2021/03/11 08:22:56;;;;;;;46.13;42.80;;;23.40;99.90;;;;;;5075422;28;20021;-52
2021/03/11 08:25:38;;;;;;;44.75;41.65;;;23.50;99.90;;;;;;5075190;28;20020;-53
2021/03/11 08:28:31;;;;;;;45.38;42.13;;;23.40;99.90;;;;;;5075447;28;20027;-53
2021/03/11 08:31:06;;;;;;;44.30;41.13;;;23.40;99.90;;;;;;5067060;28;20504;-51
2021/03/11 08:33:38;;;;;;;43.85;40.60;;;23.40;99.90;;;;;;5074890;28;20427;-49
2021/03/11 08:36:06;;;;;;;45.03;41.92;;;23.40;99.90;;;;;;5074807;28;20211;-55
2021/03/11 08:38:36;;;;;;;45.08;41.88;;;23.40;99.90;;;;;;5074541;28;20052;-53
2021/03/11 08:41:11;;;;;;;48.55;45.25;;;23.30;99.90;;;;;;5074455;28;20044;-55
2021/03/11 08:43:39;;;;;;;49.83;46.72;;;23.30;99.90;;;;;;5074438;28;20112;-53
2021/03/11 08:46:16;;;;;;;51.58;47.92;;;23.30;99.90;;;;;;5074572;28;20048;-52
2021/03/11 08:48:52;;;;;;;50.38;47.15;;;23.30;99.90;;;;;;5075330;28;20025;-54
2021/03/11 08:51:19;;;;;;;49.38;46.03;;;23.30;99.90;;;;;;5074675;28;20025;-51
2021/03/11 08:53:51;;;;;;;48.25;44.95;;;23.30;99.90;;;;;;5074744;28;20025;-53
2021/03/11 08:56:18;;;;;;;50.45;46.97;;;23.30;99.90;;;;;;5074372;28;20388;-48
2021/03/11 08:58:52;;;;;;;51.15;48.08;;;23.30;99.90;;;;;;5074373;28;20027;-56
2021/03/11 09:01:41;;;;;;;49.50;46.38;;;23.20;99.90;;;;;;5074140;28;20020;-53
2021/03/11 09:04:23;;;;;;;48.00;45.05;;;23.30;99.90;;;;;;5072983;28;20040;-58
2021/03/11 09:07:01;;;;;;;51.70;48.58;;;23.30;99.90;;;;;;5074191;28;20039;-54
2021/03/11 09:09:35;;;;;;;49.45;46.45;;;23.30;99.90;;;;;;5074192;28;20502;-53
2021/03/11 09:12:17;;;;;;;49.75;46.65;;;23.30;99.90;;;;;;5073963;28;20044;-52
2021/03/11 09:14:51;;;;;;;46.03;42.97;;;23.30;99.90;;;;;;5074171;28;20031;-53
2021/03/11 09:17:24;;;;;;;49.42;46.40;;;23.20;99.90;;;;;;5074231;28;20431;-55
2021/03/11 09:20:00;;;;;;;48.85;45.90;;;23.30;99.90;;;;;;5073953;28;20039;-54
2021/03/11 09:22:37;;;;;;;48.95;45.85;;;23.30;99.90;;;;;;5073927;28;20029;-52
2021/03/11 09:25:17;;;;;;;50.22;47.08;;;23.30;99.90;;;;;;5073852;28;20047;-54
2021/03/11 09:28:03;;;;;;;51.08;47.78;;;23.30;99.90;;;;;;5073632;28;20021;-53
2021/03/11 09:30:32;;;;;;;50.65;47.45;;;23.30;99.90;;;;;;5074245;28;20040;-52
2021/03/11 09:33:22;;;;;;;50.88;47.38;;;23.30;99.90;;;;;;5073646;28;20070;-53
2021/03/11 09:35:51;;;;;;;52.10;48.45;;;23.20;99.90;;;;;;5073693;28;20056;-51
2021/03/11 09:38:25;;;;;;;52.28;48.88;;;23.30;99.90;;;;;;5073573;28;20031;-52
2021/03/11 09:40:57;;;;;;;52.50;49.10;;;23.20;99.90;;;;;;5073623;28;20505;-52
2021/03/11 09:43:35;;;;;;;55.10;51.47;;;23.30;99.90;;;;;;5073589;28;20523;-54
2021/03/11 09:46:17;;;;;;;55.72;52.22;;;23.20;99.90;;;;;;5073455;28;20473;-60
2021/03/11 09:48:50;;;;;;;56.58;52.85;;;23.20;99.90;;;;;;5073449;28;20038;-56
2021/03/11 09:51:26;;;;;;;56.65;52.80;;;23.10;99.90;;;;;;5073385;28;20416;-58
2021/03/11 09:54:07;;;;;;;57.75;53.75;;;23.00;99.90;;;;;;5073306;28;20155;-57
2021/03/11 09:56:39;;;;;;;57.53;53.85;;;23.00;99.90;;;;;;5073364;28;20503;-54
2021/03/11 09:59:16;;;;;;;59.67;55.55;;;23.10;99.90;;;;;;5073339;28;20059;-54
2021/03/11 10:01:45;;;;;;;57.03;53.35;;;23.10;99.90;;;;;;5073225;28;20020;-55
2021/03/11 10:04:23;;;;;;;58.17;54.30;;;23.10;99.90;;;;;;5073178;28;20035;-55
2021/03/11 10:06:58;;;;;;;59.25;54.75;;;23.10;99.90;;;;;;5073107;28;20031;-55
2021/03/11 10:09:34;;;;;;;56.17;52.30;;;23.00;99.90;;;;;;5073214;28;20103;-55
2021/03/11 10:12:02;;;;;;;56.10;52.30;;;23.00;99.90;;;;;;5073070;28;20031;-56
2021/03/11 10:14:30;;;;;;;55.83;52.22;;;23.00;99.90;;;;;;5073040;28;20473;-54
2021/03/11 10:16:59;;;;;;;55.17;51.42;;;22.90;99.90;;;;;;5073063;28;20021;-56
2021/03/11 10:19:29;;;;;;;58.38;54.38;;;23.00;99.90;;;;;;5073772;28;20036;-55
2021/03/11 10:22:03;;;;;;;58.85;54.55;;;22.90;99.90;;;;;;5072977;28;20198;-53
2021/03/11 10:24:51;;;;;;;59.30;55.40;;;22.90;99.90;;;;;;5072795;28;20114;-54
2021/03/11 10:27:31;;;;;;;62.17;57.92;;;22.90;99.90;;;;;;5072941;28;20106;-54
2021/03/11 10:30:13;;;;;;;61.58;57.38;;;22.80;99.90;;;;;;5072943;28;20031;-51
2021/03/11 10:32:43;;;;;;;63.20;58.78;;;22.90;99.90;;;;;;5072768;28;20486;-52
2021/03/11 10:35:13;;;;;;;61.63;57.63;;;22.90;99.90;;;;;;5073104;28;20028;-55
2021/03/11 10:37:42;;;;;;;62.28;58.00;;;22.80;99.90;;;;;;5073304;28;20020;-55
2021/03/11 10:40:19;;;;;;;62.97;58.78;;;22.80;99.90;;;;;;5073060;28;20481;-53
2021/03/11 10:42:49;;;;;;;63.22;58.78;;;22.80;99.90;;;;;;5072510;28;20056;-57
2021/03/11 10:45:20;;;;;;;64.90;60.70;;;22.70;99.90;;;;;;5072950;28;20033;-54
2021/03/11 10:48:05;;;;;;;63.08;58.85;;;22.70;99.90;;;;;;5074624;28;20029;-55
2021/03/11 10:50:41;;;;;;;63.83;59.50;;;22.60;99.90;;;;;;5076721;28;20035;-54
2021/03/11 10:53:08;;;;;;;63.90;59.42;;;22.40;99.90;;;;;;5077152;28;20047;-54
2021/03/11 10:55:41;;;;;;;61.17;57.17;;;22.40;99.90;;;;;;5076486;28;20025;-53
2021/03/11 10:58:21;;;;;;;63.75;59.42;;;22.40;99.90;;;;;;5076452;28;20104;-54
2021/03/11 11:00:49;;;;;;;63.00;59.00;;;22.40;99.90;;;;;;5076471;28;20025;-52
2021/03/11 11:03:21;;;;;;;67.10;62.88;;;22.40;99.90;;;;;;5076734;28;20040;-53
2021/03/11 11:05:48;;;;;;;61.38;57.35;;;22.30;99.90;;;;;;5076285;28;20099;-55
2021/03/11 11:08:16;;;;;;;62.88;58.67;;;22.30;99.90;;;;;;5076242;28;20121;-55
2021/03/11 11:10:43;;;;;;;69.90;65.70;;;22.30;99.90;;;;;;5076542;28;20029;-53
2021/03/11 11:13:10;;;;;;;65.78;61.80;;;22.30;99.90;;;;;;5076310;28;20017;-55
2021/03/11 11:15:37;;;;;;;64.72;60.88;;;22.20;99.90;;;;;;5076069;28;20074;-52
2021/03/11 11:18:05;;;;;;;69.53;65.03;;;22.20;99.90;;;;;;5076054;28;20108;-57
2021/03/11 11:20:33;;;;;;;71.50;67.03;;;22.10;99.90;;;;;;5074698;28;20025;-54
2021/03/11 11:23:02;;;;;;;67.55;63.00;;;22.00;99.90;;;;;;5076050;28;20518;-52
2021/03/11 11:25:29;;;;;;;69.22;65.00;;;22.00;99.90;;;;;;5075882;28;20100;-53
2021/03/11 11:27:58;;;;;;;69.65;65.15;;;22.00;99.90;;;;;;5076052;28;20025;-50
2021/03/11 11:30:26;;;;;;;71.00;66.68;;;21.90;99.90;;;;;;5076069;28;20108;-55
2021/03/11 11:32:53;;;;;;;70.85;66.40;;;21.90;99.90;;;;;;5075953;28;20028;-54
2021/03/11 11:35:24;;;;;;;79.25;74.38;;;21.90;99.90;;;;;;5074489;28;20024;-56
2021/03/11 11:37:52;;;;;;;79.20;74.88;;;21.90;99.90;;;;;;5075159;28;20377;-55
2021/03/11 11:40:20;;;;;;;79.20;74.47;;;21.80;99.90;;;;;;5075832;28;20020;-52
2021/03/11 11:42:48;;;;;;;79.00;73.82;;;21.80;99.90;;;;;;5075648;28;20506;-51
2021/03/11 11:45:16;;;;;;;81.63;76.63;;;21.70;99.90;;;;;;5075643;28;20029;-54
2021/03/11 11:47:44;;;;;;;79.25;74.30;;;21.60;99.90;;;;;;5075723;28;20362;-54
2021/03/11 11:50:13;;;;;;;78.30;73.55;;;21.70;99.90;;;;;;5074323;28;20025;-49
2021/03/11 11:52:41;;;;;;;78.95;74.22;;;21.70;99.90;;;;;;5075585;28;20025;-53
2021/03/11 11:55:10;;;;;;;80.10;75.22;;;21.70;99.90;;;;;;5075492;28;20032;-54
2021/03/11 11:57:39;;;;;;;77.57;72.57;;;21.70;99.90;;;;;;5075713;28;20381;-55
2021/03/11 12:00:08;;;;;;;82.15;77.25;;;21.70;99.90;;;;;;5072966;28;20028;-53
2021/03/11 12:02:36;;;;;;;85.90;80.80;;;21.70;99.90;;;;;;5075271;28;20051;-55
2021/03/11 12:05:05;;;;;;;82.07;77.07;;;21.60;99.90;;;;;;5075380;28;20489;-53
2021/03/11 12:07:32;;;;;;;80.82;75.22;;;21.60;99.90;;;;;;5075932;28;20028;-54
2021/03/11 12:09:59;;;;;;;79.82;75.13;;;21.60;99.90;;;;;;5075279;28;20384;-54
2021/03/11 12:12:27;;;;;;;76.70;71.82;;;21.60;99.90;;;;;;5075248;28;20031;-54
2021/03/11 12:14:54;;;;;;;75.18;70.43;;;21.70;99.90;;;;;;5075151;28;20024;-51
2021/03/11 12:17:21;;;;;;;77.88;72.38;;;21.70;99.90;;;;;;5075196;28;20104;-54
2021/03/11 12:19:49;;;;;;;80.30;75.50;;;21.70;99.90;;;;;;5075080;28;20024;-55
2021/03/11 12:22:16;;;;;;;75.97;70.95;;;21.70;99.90;;;;;;5075308;28;20029;-52
2021/03/11 12:24:43;;;;;;;77.35;72.28;;;21.70;99.90;;;;;;5075065;28;20377;-55
2021/03/11 12:27:11;;;;;;;82.45;76.80;;;21.70;99.90;;;;;;5074895;28;20032;-54
2021/03/11 12:29:38;;;;;;;77.30;72.25;;;21.70;99.90;;;;;;5074829;28;20407;-53
2021/03/11 12:32:06;;;;;;;78.80;73.40;;;21.70;99.90;;;;;;5074801;28;20020;-54
2021/03/11 12:34:33;;;;;;;81.78;76.50;;;21.70;99.90;;;;;;5074745;28;20031;-55
2021/03/11 12:37:00;;;;;;;79.10;73.80;;;21.70;99.90;;;;;;5074764;28;20020;-52
2021/03/11 12:39:28;;;;;;;74.35;69.22;;;21.70;99.90;;;;;;5074749;28;20358;-54
2021/03/11 12:41:55;;;;;;;78.38;73.57;;;21.70;99.90;;;;;;5074401;28;20047;-57
2021/03/11 12:44:23;;;;;;;76.38;71.68;;;21.80;99.90;;;;;;5073325;28;20444;-52